createdAt,value
2023-11-23T00:00:45.964Z,2.80
2023-11-23T00:03:12.546Z,2.81
2023-11-23T00:05:39.095Z,2.61
2023-11-23T00:08:05.832Z,2.84
2023-11-23T00:10:32.323Z,2.95
2023-11-23T00:12:58.850Z,2.83
2023-11-23T00:15:25.346Z,3.07
2023-11-23T00:17:52.233Z,2.97
2023-11-23T00:20:18.970Z,3.17
2023-11-23T00:22:45.419Z,2.97
2023-11-23T00:25:11.909Z,3.01
2023-11-23T00:27:39.191Z,3.01
2023-11-23T00:30:06.573Z,2.91
2023-11-23T00:32:33.166Z,3.10
2023-11-23T00:34:59.758Z,3.14
2023-11-23T00:37:26.609Z,3.04
2023-11-23T00:39:54.144Z,3.27
2023-11-23T00:42:21.441Z,3.28
2023-11-23T00:44:47.973Z,3.36
2023-11-23T00:47:14.555Z,3.34
2023-11-23T00:49:41.071Z,3.41
2023-11-23T00:52:07.658Z,3.56
2023-11-23T00:54:34.575Z,3.57
2023-11-23T00:57:01.157Z,3.62
2023-11-23T00:59:27.740Z,3.78
2023-11-23T01:01:54.496Z,3.84
2023-11-23T01:04:21.150Z,3.72
2023-11-23T01:06:47.700Z,3.72
2023-11-23T01:09:14.253Z,3.75
2023-11-23T01:11:40.851Z,3.89
2023-11-23T01:14:08.598Z,3.91
2023-11-23T01:16:35.218Z,4.03
2023-11-23T01:19:01.711Z,3.94
2023-11-23T01:21:28.361Z,3.93
2023-11-23T01:23:54.996Z,4.03
2023-11-23T01:26:21.518Z,4.01
2023-11-23T01:28:48.055Z,4.04
2023-11-23T01:31:14.833Z,4.00
2023-11-23T01:33:42.484Z,4.10
2023-11-23T01:36:09.272Z,4.11
2023-11-23T01:38:35.854Z,4.15
2023-11-23T01:41:02.304Z,4.23
2023-11-23T01:43:28.935Z,4.12
2023-11-23T01:45:55.574Z,4.25
2023-11-23T01:48:22.504Z,4.20
2023-11-23T01:50:50.554Z,4.26
2023-11-23T01:53:18.173Z,4.28
2023-11-23T01:55:45.260Z,4.24
2023-11-23T01:58:14.820Z,4.36
2023-11-23T02:00:42.679Z,4.43
2023-11-23T02:03:10.036Z,4.51
2023-11-23T02:05:36.680Z,4.55
2023-11-23T02:08:03.411Z,4.50
2023-11-23T02:10:29.908Z,4.74
2023-11-23T02:12:56.460Z,4.66
2023-11-23T02:15:23.550Z,4.71
2023-11-23T02:18:06.017Z,4.67
2023-11-23T02:20:32.634Z,4.76
2023-11-23T02:22:59.261Z,4.67
2023-11-23T02:25:25.732Z,4.87
2023-11-23T02:27:52.941Z,4.94
2023-11-23T02:30:25.750Z,4.87
2023-11-23T02:32:52.441Z,4.71
2023-11-23T02:35:19.503Z,4.73
2023-11-23T02:37:46.132Z,4.68
2023-11-23T02:40:12.865Z,4.71
2023-11-23T02:42:41.870Z,4.64
2023-11-23T02:45:10.227Z,4.53
2023-11-23T02:47:37.274Z,4.73
2023-11-23T02:50:04.359Z,4.72
2023-11-23T02:52:31.290Z,4.75
2023-11-23T02:54:57.785Z,4.59
2023-11-23T02:57:24.272Z,4.47
2023-11-23T02:59:51.264Z,4.53
2023-11-23T03:02:18.654Z,4.58
2023-11-23T03:04:45.321Z,4.57
2023-11-23T03:07:11.927Z,4.47
2023-11-23T03:09:38.554Z,4.55
2023-11-23T03:12:05.523Z,4.55
2023-11-23T03:14:32.725Z,4.63
2023-11-23T03:16:59.197Z,4.72
2023-11-23T03:19:25.708Z,4.56
2023-11-23T03:21:52.728Z,4.62
2023-11-23T03:24:19.313Z,4.70
2023-11-23T03:26:45.864Z,4.51
2023-11-23T03:29:13.012Z,4.38
2023-11-23T03:31:39.495Z,4.56
2023-11-23T03:34:06.548Z,4.45
2023-11-23T03:36:33.332Z,4.67
2023-11-23T03:38:59.880Z,4.50
2023-11-23T03:41:26.424Z,4.74
2023-11-23T03:43:53.308Z,4.54
2023-11-23T03:46:19.879Z,4.54
2023-11-23T03:48:46.436Z,4.66
2023-11-23T03:51:13.088Z,4.65
2023-11-23T03:53:39.794Z,4.79
2023-11-23T03:56:06.925Z,4.83
2023-11-23T03:58:33.376Z,4.82
2023-11-23T04:00:59.852Z,4.92
2023-11-23T04:03:26.549Z,4.73
2023-11-23T04:05:53.049Z,4.83
2023-11-23T04:08:19.595Z,5.16
2023-11-23T04:10:46.145Z,4.51
2023-11-23T04:13:12.692Z,4.42
2023-11-23T04:15:39.773Z,4.27
2023-11-23T04:18:06.343Z,3.95
2023-11-23T04:20:33.943Z,3.94
2023-11-23T04:23:00.550Z,4.35
2023-11-23T04:25:27.021Z,4.30
2023-11-23T04:27:53.464Z,4.21
2023-11-23T04:30:19.943Z,4.23
2023-11-23T04:32:46.653Z,3.97
2023-11-23T04:35:14.693Z,4.15
2023-11-23T04:37:41.146Z,4.09
2023-11-23T04:40:08.462Z,4.04
2023-11-23T04:42:36.320Z,3.98
2023-11-23T04:45:02.967Z,3.67
2023-11-23T04:47:30.155Z,3.73
2023-11-23T04:49:56.694Z,3.82
2023-11-23T04:52:23.411Z,3.91
2023-11-23T04:54:49.892Z,3.87
2023-11-23T04:57:16.463Z,4.05
2023-11-23T04:59:43.082Z,4.26
2023-11-23T05:02:09.741Z,4.23
2023-11-23T05:04:36.293Z,4.44
2023-11-23T05:07:03.145Z,4.64
2023-11-23T05:09:29.647Z,4.92
2023-11-23T05:11:59.040Z,4.98
2023-11-23T05:14:26.171Z,5.22
2023-11-23T05:16:52.782Z,5.22
2023-11-23T05:19:31.556Z,5.11
2023-11-23T05:22:06.015Z,5.21
2023-11-23T05:24:35.874Z,5.18
2023-11-23T05:27:02.726Z,5.25
2023-11-23T05:29:29.219Z,5.24
2023-11-23T05:31:55.714Z,5.38
2023-11-23T05:34:22.286Z,5.22
2023-11-23T05:36:49.280Z,5.37
2023-11-23T05:39:16.030Z,5.54
2023-11-23T05:41:42.582Z,5.44
2023-11-23T05:44:09.121Z,5.48
2023-11-23T05:46:35.662Z,5.54
2023-11-23T05:49:02.882Z,5.49
2023-11-23T05:51:29.900Z,5.57
2023-11-23T05:53:56.407Z,5.74
2023-11-23T05:56:22.864Z,5.67
2023-11-23T05:58:49.884Z,5.58
2023-11-23T06:01:16.619Z,5.57
2023-11-23T06:03:43.327Z,5.55
2023-11-23T06:06:19.227Z,5.55
2023-11-23T06:08:46.170Z,5.68
2023-11-23T06:11:16.302Z,5.57
2023-11-23T06:13:45.852Z,5.69
2023-11-23T06:16:15.141Z,5.80
2023-11-23T06:18:42.796Z,5.75
2023-11-23T06:21:09.365Z,5.71
2023-11-23T06:23:35.972Z,5.82
2023-11-23T06:26:02.478Z,5.89
2023-11-23T06:28:29.008Z,5.67
2023-11-23T06:30:55.474Z,5.76
2023-11-23T06:33:22.175Z,5.76
2023-11-23T06:35:48.758Z,5.84
2023-11-23T06:38:17.677Z,5.87
2023-11-23T06:40:44.160Z,5.87
2023-11-23T06:43:10.679Z,5.90
2023-11-23T06:45:37.123Z,6.01
2023-11-23T06:48:03.711Z,6.00
2023-11-23T06:50:31.304Z,6.11
2023-11-23T06:52:57.833Z,6.16
2023-11-23T06:55:24.321Z,6.24
2023-11-23T06:57:50.803Z,6.22
2023-11-23T07:00:18.792Z,6.17
2023-11-23T07:02:45.402Z,5.99
2023-11-23T07:05:13.297Z,5.98
2023-11-23T07:07:40.028Z,5.87
2023-11-23T07:10:07.108Z,5.95
2023-11-23T07:12:33.710Z,5.93
2023-11-23T07:15:00.883Z,5.80
2023-11-23T07:17:30.499Z,5.92
2023-11-23T07:19:57.076Z,5.78
2023-11-23T07:22:23.657Z,5.85
2023-11-23T07:24:50.985Z,5.94
2023-11-23T07:27:18.253Z,5.91
2023-11-23T07:29:49.931Z,5.85
2023-11-23T07:32:18.775Z,5.98
2023-11-23T07:34:46.235Z,5.90
2023-11-23T07:37:13.722Z,6.02
2023-11-23T07:39:40.405Z,6.00
2023-11-23T07:42:07.234Z,6.19
2023-11-23T07:44:34.056Z,6.35
2023-11-23T07:47:00.825Z,6.38
2023-11-23T07:49:27.836Z,6.32
2023-11-23T07:51:55.793Z,6.51
2023-11-23T07:54:23.109Z,6.55
2023-11-23T07:56:49.700Z,6.56
2023-11-23T07:59:16.147Z,6.55
2023-11-23T08:01:42.620Z,6.47
2023-11-23T08:04:09.311Z,6.68
2023-11-23T08:06:35.944Z,6.67
2023-11-23T08:09:02.622Z,6.64
2023-11-23T08:11:29.626Z,6.58
2023-11-23T08:13:56.548Z,6.75
2023-11-23T08:16:23.066Z,6.86
2023-11-23T08:18:50.486Z,6.78
2023-11-23T08:21:19.008Z,6.84
2023-11-23T08:23:45.551Z,6.86
2023-11-23T08:26:12.180Z,6.80
2023-11-23T08:28:38.815Z,6.83
2023-11-23T08:31:07.995Z,6.89
2023-11-23T08:33:34.711Z,6.97
2023-11-23T08:36:01.328Z,6.91
2023-11-23T08:38:27.783Z,6.91
2023-11-23T08:40:54.287Z,7.14
2023-11-23T08:43:20.846Z,7.09
2023-11-23T08:45:47.357Z,7.07
2023-11-23T08:48:14.465Z,6.92
2023-11-23T08:50:41.574Z,7.14
2023-11-23T08:53:08.067Z,7.06
2023-11-23T08:55:34.579Z,7.30
2023-11-23T08:58:01.089Z,7.18
2023-11-23T09:00:27.719Z,7.05
2023-11-23T09:02:55.159Z,7.02
2023-11-23T09:05:22.732Z,7.04
2023-11-23T09:07:49.777Z,7.25
2023-11-23T09:10:16.817Z,7.31
2023-11-23T09:12:44.234Z,7.22
2023-11-23T09:15:11.332Z,7.23
2023-11-23T09:17:37.970Z,7.37
2023-11-23T09:20:07.179Z,7.42
2023-11-23T09:22:33.770Z,7.38
2023-11-23T09:25:00.695Z,7.61
2023-11-23T09:27:27.551Z,7.55
2023-11-23T09:29:54.268Z,7.53
2023-11-23T09:32:20.885Z,7.61
2023-11-23T09:34:47.338Z,7.60
2023-11-23T09:37:13.831Z,7.57
2023-11-23T09:39:41.697Z,7.89
2023-11-23T09:42:08.565Z,7.94
2023-11-23T09:44:38.806Z,8.00
2023-11-23T09:47:06.660Z,7.85
2023-11-23T09:49:33.850Z,7.75
2023-11-23T09:52:01.031Z,7.80
2023-11-23T09:54:31.493Z,7.92
2023-11-23T09:56:59.261Z,7.98
2023-11-23T09:59:28.234Z,8.03
2023-11-23T10:01:56.163Z,8.14
2023-11-23T10:04:22.869Z,7.95
2023-11-23T10:06:49.468Z,7.93
2023-11-23T10:09:16.992Z,7.93
2023-11-23T10:11:43.918Z,8.18
2023-11-23T10:14:11.769Z,8.05
2023-11-23T10:16:38.690Z,8.15
2023-11-23T10:19:05.212Z,7.96
2023-11-23T10:21:31.933Z,8.16
2023-11-23T10:24:05.496Z,8.24
2023-11-23T10:26:32.391Z,8.35
2023-11-23T10:28:59.720Z,8.14
2023-11-23T10:31:26.287Z,8.27
2023-11-23T10:33:53.201Z,8.20
2023-11-23T10:36:24.793Z,8.40
2023-11-23T10:38:55.664Z,8.45
2023-11-23T10:41:22.600Z,8.78
2023-11-23T10:43:50.539Z,8.52
2023-11-23T10:46:18.990Z,8.56
2023-11-23T10:48:50.055Z,8.59
2023-11-23T10:51:17.302Z,8.49
2023-11-23T10:53:43.853Z,8.72
2023-11-23T10:56:23.603Z,8.52
2023-11-23T10:58:54.021Z,8.47
2023-11-23T11:01:22.916Z,8.55
2023-11-23T11:03:50.301Z,8.69
2023-11-23T11:06:18.414Z,8.62
2023-11-23T11:08:47.016Z,8.69
2023-11-23T11:11:16.997Z,8.76
2023-11-23T11:13:44.190Z,8.76
2023-11-23T11:16:13.753Z,8.92
2023-11-23T11:18:40.428Z,8.80
2023-11-23T11:21:14.678Z,8.94
2023-11-23T11:23:46.349Z,8.99
2023-11-23T11:26:12.807Z,9.08
2023-11-23T11:28:40.719Z,8.94
2023-11-23T11:31:08.740Z,9.33
2023-11-23T11:33:37.291Z,9.06
2023-11-23T11:36:05.120Z,9.20
2023-11-23T11:38:31.859Z,9.24
2023-11-23T11:41:01.716Z,9.30
2023-11-23T11:43:28.250Z,9.30
2023-11-23T11:45:55.133Z,9.22
2023-11-23T11:48:21.775Z,9.36
2023-11-23T11:50:58.520Z,9.60
2023-11-23T11:53:25.196Z,9.58
2023-11-23T11:55:51.702Z,9.75
2023-11-23T11:58:18.609Z,9.53
2023-11-23T12:00:45.817Z,9.66
2023-11-23T12:03:12.507Z,9.44
2023-11-23T12:05:43.311Z,9.52
2023-11-23T12:08:09.933Z,9.37
2023-11-23T12:10:43.416Z,9.38
2023-11-23T12:13:10.187Z,9.43
2023-11-23T12:15:40.572Z,9.32
2023-11-23T12:18:07.472Z,9.42
2023-11-23T12:20:38.231Z,9.32
2023-11-23T12:23:05.563Z,9.44
2023-11-23T12:25:34.322Z,9.38
2023-11-23T12:28:01.635Z,9.48
2023-11-23T12:30:28.163Z,9.26
2023-11-23T12:32:54.763Z,9.20
2023-11-23T12:35:21.254Z,9.40
2023-11-23T12:37:47.939Z,9.32
2023-11-23T12:40:14.635Z,9.31
2023-11-23T12:42:41.232Z,9.21
2023-11-23T12:45:08.118Z,9.25
2023-11-23T12:47:38.291Z,9.18
2023-11-23T12:50:05.427Z,9.32
2023-11-23T12:52:32.196Z,9.39
2023-11-23T12:54:58.684Z,9.36
2023-11-23T12:57:25.212Z,9.27
2023-11-23T12:59:51.769Z,9.25
2023-11-23T13:02:18.439Z,9.33
2023-11-23T13:04:44.957Z,9.28
2023-11-23T13:07:11.789Z,9.35
2023-11-23T13:09:38.492Z,9.47
2023-11-23T13:12:05.476Z,9.45
2023-11-23T13:14:32.398Z,9.50
2023-11-23T13:16:58.936Z,9.45
2023-11-23T13:19:30.727Z,9.55
2023-11-23T13:22:04.549Z,9.52
2023-11-23T13:24:31.674Z,9.53
2023-11-23T13:26:58.175Z,9.52
2023-11-23T13:29:24.952Z,9.57
2023-11-23T13:31:51.510Z,9.57
2023-11-23T13:34:18.112Z,9.61
2023-11-23T13:36:44.936Z,9.71
2023-11-23T13:39:12.489Z,9.63
2023-11-23T13:41:39.026Z,9.56
2023-11-23T13:44:05.689Z,9.62
2023-11-23T13:46:32.383Z,9.48
2023-11-23T13:49:00.298Z,9.47
2023-11-23T13:51:30.279Z,9.35
2023-11-23T13:53:58.185Z,9.53
2023-11-23T13:56:24.984Z,9.36
2023-11-23T13:58:52.438Z,9.39
2023-11-23T14:01:19.154Z,9.40
2023-11-23T14:03:45.829Z,9.40
2023-11-23T14:06:12.351Z,9.53
2023-11-23T14:08:38.889Z,9.57
2023-11-23T14:11:05.461Z,9.48
2023-11-23T14:13:35.267Z,9.55
2023-11-23T14:16:01.883Z,9.52
2023-11-23T14:18:28.535Z,9.67
2023-11-23T14:20:55.333Z,9.61
2023-11-23T14:23:21.834Z,9.49
2023-11-23T14:25:48.296Z,9.58
2023-11-23T14:28:14.850Z,9.54
2023-11-23T14:30:45.193Z,9.58
2023-11-23T14:33:12.379Z,9.64
2023-11-23T14:35:39.459Z,9.55
2023-11-23T14:38:06.026Z,9.47
2023-11-23T14:40:33.325Z,9.64
2023-11-23T14:42:59.884Z,9.63
2023-11-23T14:45:29.266Z,9.66
2023-11-23T14:47:58.450Z,9.62
2023-11-23T14:50:24.946Z,9.64
2023-11-23T14:52:51.403Z,9.71
2023-11-23T14:55:18.048Z,9.55
2023-11-23T14:57:44.724Z,9.63
2023-11-23T15:00:11.910Z,9.70
2023-11-23T15:02:42.293Z,9.76
2023-11-23T15:05:09.379Z,9.76
2023-11-23T15:07:35.888Z,9.78
2023-11-23T15:10:02.456Z,9.64
2023-11-23T15:12:29.138Z,9.59
2023-11-23T15:14:55.728Z,9.66
2023-11-23T15:17:22.439Z,9.66
2023-11-23T15:19:48.917Z,9.65
2023-11-23T15:22:16.036Z,9.65
2023-11-23T15:24:42.536Z,9.71
2023-11-23T15:27:09.141Z,9.90
2023-11-23T15:29:35.925Z,9.79
2023-11-23T15:32:02.445Z,9.76
2023-11-23T15:34:30.213Z,9.65
2023-11-23T15:36:57.091Z,9.78
2023-11-23T15:43:16.251Z,9.68
2023-11-23T15:45:42.760Z,9.79
2023-11-23T15:48:09.925Z,9.80
2023-11-23T15:50:36.929Z,9.71
2023-11-23T15:53:03.712Z,9.81
2023-11-23T15:55:30.504Z,9.63
2023-11-23T15:57:57.176Z,9.77
2023-11-23T16:00:23.976Z,9.79
2023-11-23T16:02:50.903Z,9.65
2023-11-23T16:05:17.660Z,9.66
2023-11-23T16:07:44.494Z,9.73
2023-11-23T16:10:11.401Z,9.64
2023-11-23T16:12:37.938Z,9.64
2023-11-23T16:15:07.018Z,9.78
2023-11-23T16:17:33.783Z,9.60
2023-11-23T16:20:00.520Z,9.78
2023-11-23T16:22:27.008Z,9.61
2023-11-23T16:24:53.581Z,9.61
2023-11-23T16:27:20.852Z,9.61
2023-11-23T16:29:47.348Z,9.75
2023-11-23T16:32:14.021Z,9.65
2023-11-23T16:34:40.646Z,9.69
2023-11-23T16:37:09.311Z,9.54
2023-11-23T16:39:36.990Z,9.65
2023-11-23T16:44:42.176Z,9.33
2023-11-23T16:47:08.909Z,9.59
2023-11-23T16:49:35.480Z,9.70
2023-11-23T16:52:02.070Z,9.73
2023-11-23T16:54:28.545Z,9.82
2023-11-23T16:56:55.618Z,9.66
2023-11-23T16:59:22.777Z,9.69
2023-11-23T17:01:49.370Z,9.79
2023-11-23T17:04:16.395Z,9.71
2023-11-23T17:06:43.319Z,9.88
2023-11-23T17:09:10.076Z,9.90
2023-11-23T17:11:36.885Z,9.87
2023-11-23T17:14:03.770Z,9.75
2023-11-23T17:16:30.387Z,9.82
2023-11-23T17:18:56.960Z,9.80
2023-11-23T17:21:23.397Z,9.87
2023-11-23T17:23:50.395Z,9.91
2023-11-23T17:26:16.903Z,9.91
2023-11-23T17:28:43.492Z,9.93
2023-11-23T17:31:10.760Z,9.91
2023-11-23T17:33:38.703Z,9.90
2023-11-23T17:36:05.885Z,9.97
2023-11-23T17:38:33.095Z,10.04
2023-11-23T17:40:59.774Z,9.93
2023-11-23T17:43:28.525Z,9.94
2023-11-23T17:45:55.727Z,9.56
2023-11-23T17:48:23.492Z,9.87
2023-11-23T17:50:51.823Z,9.92
2023-11-23T17:53:18.392Z,9.89
2023-11-23T17:55:45.123Z,9.96
2023-11-23T17:58:11.657Z,10.09
2023-11-23T18:00:38.294Z,10.01
2023-11-23T18:03:11.590Z,10.00
2023-11-23T18:05:42.100Z,10.06
2023-11-23T18:08:08.761Z,10.00
2023-11-23T18:10:37.091Z,10.11
2023-11-23T18:13:03.565Z,9.92
2023-11-23T18:15:30.216Z,9.90
2023-11-23T18:17:57.004Z,9.95
2023-11-23T18:20:23.679Z,9.97
2023-11-23T18:22:50.489Z,9.98
2023-11-23T18:25:17.424Z,9.89
2023-11-23T18:27:44.103Z,9.97
2023-11-23T18:30:11.122Z,10.05
2023-11-23T18:32:42.470Z,9.89
2023-11-23T18:35:14.896Z,9.96
2023-11-23T18:38:13.385Z,9.95
2023-11-23T18:40:56.687Z,10.00
2023-11-23T18:43:27.944Z,9.94
2023-11-23T18:45:58.907Z,9.99
2023-11-23T18:48:34.898Z,9.90
2023-11-23T18:51:02.436Z,9.90
2023-11-23T18:54:13.204Z,9.86
2023-11-23T18:56:54.171Z,9.80
2023-11-23T18:59:24.831Z,9.92
2023-11-23T19:01:58.396Z,9.85
2023-11-23T19:04:33.210Z,9.79
2023-11-23T19:07:05.121Z,9.87
2023-11-23T19:09:34.210Z,9.67
2023-11-23T19:12:02.954Z,9.64
2023-11-23T19:14:32.115Z,9.73
2023-11-23T19:17:00.139Z,9.61
2023-11-23T19:19:29.374Z,9.58
2023-11-23T19:21:58.013Z,9.56
2023-11-23T19:24:26.745Z,9.57
2023-11-23T19:27:26.800Z,9.62
2023-11-23T19:30:05.247Z,9.62
2023-11-23T19:32:33.794Z,9.51
2023-11-23T19:35:04.481Z,9.55
2023-11-23T19:37:33.589Z,9.54
2023-11-23T19:40:02.713Z,9.41
2023-11-23T19:42:34.869Z,9.35
2023-11-23T19:45:04.409Z,9.31
2023-11-23T19:47:34.731Z,9.29
2023-11-23T19:50:04.073Z,9.20
2023-11-23T19:52:35.310Z,9.38
2023-11-23T19:55:06.029Z,9.20
2023-11-23T19:57:37.952Z,9.38
2023-11-23T20:00:08.971Z,9.34
2023-11-23T20:02:41.990Z,9.27
2023-11-23T20:05:12.427Z,9.29
2023-11-23T20:07:42.061Z,9.34
2023-11-23T20:10:11.297Z,9.27
2023-11-23T20:12:40.311Z,9.32
2023-11-23T20:15:08.736Z,9.25
2023-11-23T20:17:36.794Z,9.38
2023-11-23T20:23:22.042Z,9.33
2023-11-23T20:25:50.803Z,9.14
2023-11-23T20:28:20.273Z,9.24
2023-11-23T20:30:51.359Z,9.21
2023-11-23T20:33:20.976Z,9.28
2023-11-23T20:35:49.492Z,9.15
2023-11-23T20:38:18.638Z,9.48
2023-11-23T20:41:12.319Z,9.32
2023-11-23T20:43:45.391Z,9.32
2023-11-23T20:46:14.940Z,9.27
2023-11-23T20:49:11.583Z,9.23
2023-11-23T20:51:45.634Z,9.25
2023-11-23T20:54:14.461Z,9.20
2023-11-23T20:56:44.126Z,9.32
2023-11-23T20:59:12.069Z,9.13
2023-11-23T21:01:44.133Z,9.23
2023-11-23T21:04:14.924Z,9.21
2023-11-23T21:06:55.559Z,9.26
2023-11-23T21:09:30.540Z,9.21
2023-11-23T21:12:01.684Z,9.27
2023-11-23T21:26:09.534Z,9.27
2023-11-23T21:36:09.571Z,9.26
2023-11-23T21:39:25.819Z,9.36
2023-11-23T21:41:55.141Z,9.32
2023-11-23T21:44:23.616Z,9.31
2023-11-23T21:46:53.683Z,9.35
2023-11-23T21:49:22.473Z,9.44
2023-11-23T21:51:51.235Z,9.35
2023-11-23T21:54:34.599Z,9.45
2023-11-23T21:57:02.933Z,9.36
2023-11-23T22:03:29.297Z,9.40
2023-11-23T22:06:43.839Z,9.38
2023-11-23T22:16:25.087Z,9.41
2023-11-23T22:19:39.119Z,9.30
2023-11-23T22:22:44.393Z,9.44
2023-11-23T22:26:11.747Z,9.43
2023-11-23T22:29:20.634Z,9.50
2023-11-23T22:36:15.525Z,9.55
2023-11-23T22:38:42.639Z,9.42
2023-11-23T22:41:10.004Z,9.54
2023-11-23T22:43:37.359Z,9.48
2023-11-23T22:46:05.378Z,9.50
2023-11-23T22:48:32.542Z,9.41
2023-11-23T22:50:59.155Z,9.49
2023-11-23T22:53:26.225Z,9.50
2023-11-23T22:55:53.007Z,9.49
2023-11-23T22:58:20.220Z,9.42
2023-11-23T23:00:47.214Z,9.59
2023-11-23T23:03:14.584Z,9.50
2023-11-23T23:05:42.040Z,9.44
2023-11-23T23:08:09.330Z,9.42
2023-11-23T23:10:36.443Z,9.43
2023-11-23T23:13:03.935Z,9.40
2023-11-23T23:15:31.127Z,9.49
2023-11-23T23:17:58.097Z,9.46
2023-11-23T23:20:25.470Z,9.35
2023-11-23T23:22:56.216Z,9.47
2023-11-23T23:25:23.155Z,9.52
2023-11-23T23:27:50.392Z,9.24
2023-11-23T23:30:17.897Z,9.22
2023-11-23T23:32:44.906Z,9.33
2023-11-23T23:35:12.480Z,9.22
2023-11-23T23:37:40.354Z,9.36
2023-11-23T23:40:09.316Z,9.40
2023-11-23T23:42:36.866Z,9.24
2023-11-23T23:45:04.317Z,9.40
2023-11-23T23:47:31.477Z,9.42
2023-11-23T23:49:58.538Z,9.30
2023-11-23T23:52:25.641Z,9.28
2023-11-23T23:54:52.309Z,9.33
2023-11-23T23:57:19.189Z,9.35
2023-11-23T23:59:46.307Z,9.25
